Airfield :
LOGIN :

Register | Disclaimer

   EN    FR    IT 

 










Legend :    VFR   Marginal VFR   IFR   Intensive IFR   Very Intensive IFR
Visi :
Ceiling :
>= 8 km
>= 3000ft
5 to 8 km
1000 to 3000 ft
1500m to 5 km
500 to 1000 ft
800 to 1500m
200 to 500 ft
< 800m
< 200 ft
Symbols :   Thunderstorms  Fog  Heavy snow  Heavy precipitations  Wind > 20 kt
SIGMETs :     Misc.  Thunderstorms  Icing  Turbulence  Mountain Waves  Volcanic Ashes







- Airport Elevation : 326 ft
- IATA code : LCG
- Download approach charts


LECO - A Coruna

CURRENT METAR :
  • 171900Z 33006KT 280V020 CAVOK 21/16 Q1020 NOSIG

EXPIRED METARs :
  • 171830Z 33008KT 280V020 CAVOK 22/16 Q1020 NOSIG
  • 171800Z 31008KT 260V360 CAVOK 23/16 Q1020 NOSIG
  • 171730Z 34008KT 300V030 CAVOK 24/16 Q1020 NOSIG
  • 171700Z 32008KT 270V010 CAVOK 25/16 Q1020 NOSIG
  • 171630Z 33008KT 260V030 CAVOK 25/16 Q1020 NOSIG

TAF TAF LECO
Valid from the 17 at 15:00 until the 18 at 15:00 UTC


171400Z 1715/1815 VRB04KT 9999 SCT030 TX24/1715Z TN18/1801Z
TEMPO 1715/1720 32010KT
TEMPO 1720/1810 BKN010
TEMPO 1722/1809 3000 -RADZ
TEMPO 1809/1815 35010KT
No reported NOTAMs for that airfield.



MET'MAP, your aeronautical weather chart ! - Copyright ORBIFLY December 2007 - Disclaimer

ORBIFLY MET'MAP TEAM :

Programming & Development : Alexandra Zaïnal
Concept & Development : Baudouin d'Aumeries
Co-Development & Prog : Marc-Olivier Méhu
Technical & hardware support : Manuel Goepfert

Contact : metmap@orbifly.com




SOURCES & CREDITS :

   NOAA